• Join FlightAware (Why Join?)
  • Login
  • US Flag 
06:17PM EDT


 

Airport Tracker/Info


-or-


 

Live Flight TrackerFlight Track Log ✈ DAL635 ✈ 31-Jan-2014 ✈ KSLC - KLAX

Flight Track Log - Related Links

Times and Time Zones

All times are in EST time to prevent confusion due to time zone crossing. See the DAL635 flight status page for this flight to view local times or setup timezone preferences in your user account.

Time Position Orientation Groundspeed Altitude Reporting Facility
EST Latitude Longitude Course Direction KTS MPH feet Rate Location/Type
12:27AM 40.8108 -112.0006 190° South 174 200 5,300  Level Salt Lake Center
12:27AM 40.8219 -112.0025 352° North 171 197 6,000 2,040 Climbing Salt Lake Center
12:28AM 40.8353 -112.0231 311° West 186 214 6,700 1,860 Climbing Salt Lake Center
12:28AM 40.8314 -112.0731 264° West 247 284 7,900 2,220 Climbing Salt Lake Center
12:29AM 40.8292 -112.1128 266° West 246 283 9,000 1,980 Climbing Salt Lake Center
12:30AM 40.6958 -112.2771 201° Southwest  Level FlightAware Approximate
12:30AM 40.8103 -112.2125 256° West 278 320 10,900  Level Salt Lake Center
12:31AM 40.5918 -112.2940 186° South  Level FlightAware Approximate
12:31AM 40.7481 -112.2739 217° Southwest 289 333 11,000  Level Salt Lake Center
12:32AM 40.4877 -112.3144 190° South  Level FlightAware Approximate
12:32AM 40.6703 -112.2944 191° South 288 331 12,300  Level Salt Lake Center
12:33AM 40.5864 -112.3078 187° South 307 353 14,400 1,320 Climbing Salt Lake Center
12:34AM 40.4853 -112.3278 189° South 368 423 15,100 1,800 Climbing Salt Lake Center
12:35AM 40.3500 -112.3586 190° South 417 480 18,100 2,700 Climbing Salt Lake Center
12:36AM 40.2464 -112.4214 205° Southwest 412 474 20,700 2,280 Climbing Salt Lake Center
12:37AM 40.1436 -112.4964 209° Southwest 422 486 22,800 1,980 Climbing Salt Lake Center
12:38AM 40.0400 -112.5706 209° Southwest 425 489 24,800 1,440 Climbing Salt Lake Center
12:39AM 39.9308 -112.6464 208° Southwest 447 514 25,800 1,260 Climbing Salt Lake Center
12:40AM 39.8175 -112.7256 208° Southwest 462 532 27,400 1,560 Climbing Salt Lake Center
12:41AM 39.7108 -112.8000 208° Southwest 466 536 29,000 1,680 Climbing Salt Lake Center
12:42AM 39.5889 -112.8447 196° South 458 527 30,900 1,860 Climbing Salt Lake Center
12:43AM 39.4406 -112.8961 195° South 460 529 32,800 1,500 Climbing Salt Lake Center
12:44AM 39.3150 -112.9389 195° South 466 536 34,000 1,200 Climbing Salt Lake Center
12:45AM 39.1897 -112.9778 194° South 465 535 35,300 960 Climbing Salt Lake Center
12:46AM 39.0661 -113.0175 194° South 461 531 36,000 300 Climbing Salt Lake Center
12:47AM 38.9422 -113.0531 193° South 458 527 36,000 120 Level Salt Lake Center
12:48AM 38.8175 -113.0950 195° South 462 532 36,300 660 Climbing Salt Lake Center
12:49AM 38.6911 -113.1358 194° South 466 536 37,400 780 Climbing Salt Lake Center
12:50AM 38.5664 -113.1750 194° South 465 535 38,000 240 Climbing Salt Lake Center
12:51AM 38.4400 -113.2203 196° South 469 540 38,000  Level Salt Lake Center
12:52AM 38.3128 -113.2575 193° South 473 544 38,000  Level Salt Lake Center
12:53AM 38.1861 -113.2975 194° South 471 542 38,000  Level Salt Lake Center
12:54AM 38.0336 -113.3439 193° South 473 544 38,000  Level Salt Lake Center
12:55AM 37.9097 -113.3850 195° South 467 537 38,000  Level Salt Lake Center
12:56AM 37.8022 -113.4639 210° Southwest 451 519 38,000  Level Salt Lake Center
12:57AM 37.6994 -113.5469 213° Southwest 445 512 38,000  Level Salt Lake Center
12:58AM 37.5953 -113.6292 212° Southwest 444 511 38,000  Level Salt Lake Center
12:59AM 37.5092 -113.6950 211° Southwest 448 516 38,000  Level Los Angeles Center
01:00AM 37.4031 -113.7775 212° Southwest 449 517 38,000  Level Los Angeles Center
01:01AM 37.2972 -113.8611 212° Southwest 451 519 38,000  Level Los Angeles Center
01:02AM 37.1906 -113.9442 212° Southwest 446 513 38,000  Level Los Angeles Center
01:03AM 37.0886 -114.0244 212° Southwest 434 499 38,000  Level Los Angeles Center
01:04AM 36.9850 -114.1050 212° Southwest 437 503 38,000  Level Los Angeles Center
01:05AM 36.8797 -114.1858 212° Southwest 441 507 38,000  Level Los Angeles Center
01:06AM 36.7739 -114.2681 212° Southwest 446 513 38,000  Level Los Angeles Center
01:07AM 36.6686 -114.3492 212° Southwest 445 512 38,000  Level Los Angeles Center
01:08AM 36.5642 -114.4303 212° Southwest 442 509 38,000  Level Los Angeles Center
01:09AM 36.4583 -114.5119 212° Southwest 445 512 38,000  Level Los Angeles Center
01:10AM 36.3544 -114.5925 212° Southwest 441 507 38,000  Level Los Angeles Center
01:11AM 36.2294 -114.6864 211° Southwest 434 499 38,000  Level Los Angeles Center
01:12AM 36.1283 -114.7636 212° Southwest 426 490 38,000  Level Los Angeles Center
01:13AM 36.0269 -114.8400 211° Southwest 424 488 38,000  Level Los Angeles Center
01:14AM 35.9417 -114.9342 222° Southwest 411 473 38,000  Level Los Angeles Center
01:15AM 35.8606 -115.0317 224° Southwest 404 465 38,000  Level Los Angeles Center
01:16AM 35.7794 -115.1311 225° Southwest 408 470 38,000  Level Los Angeles Center
01:17AM 35.6989 -115.2317 225° Southwest 410 472 38,000  Level Los Angeles Center
01:18AM 35.6181 -115.3294 225° Southwest 408 470 38,000  Level Los Angeles Center
01:20AM 35.5356 -115.4286 224° Southwest 412 474 38,000  Level Los Angeles Center
01:21AM 35.4531 -115.5275 224° Southwest 413 475 38,000  Level Los Angeles Center
01:22AM 35.3775 -115.6189 225° Southwest 416 479 38,000  Level Los Angeles Center
01:23AM 35.2800 -115.7361 224° Southwest 411 473 38,000  Level Los Angeles Center
01:24AM 35.2150 -115.8136 224° Southwest 408 470 38,000  Level Los Angeles Center
01:25AM 35.1164 -115.9303 224° Southwest 410 472 38,000  Level Los Angeles Center
01:26AM 35.0358 -116.0269 225° Southwest 408 470 38,000  Level Los Angeles Center
01:27AM 34.9553 -116.1225 224° Southwest 405 466 38,000 -600 Level Los Angeles Center
01:28AM 34.8742 -116.2169 224° Southwest 404 465 36,800 -1,080 Descending Los Angeles Center
01:29AM 34.7900 -116.3144 224° Southwest 412 474 35,900 -1,260 Descending Los Angeles Center
01:30AM 34.7086 -116.4092 224° Southwest 408 470 34,300 -1,980 Descending Los Angeles Center
01:31AM 34.6294 -116.5028 224° Southwest 399 459 31,900 -2,160 Descending Los Angeles Center
01:32AM 34.5544 -116.5906 224° Southwest 378 435 30,000 -1,740 Descending Los Angeles Center
01:33AM 34.4825 -116.6733 223° Southwest 359 413 28,100 -2,100 Descending Los Angeles Center
01:34AM 34.4019 -116.7672 224° Southwest 338 389 25,400 -2,580 Descending Los Angeles Center
01:35AM 34.3344 -116.8464 224° Southwest 338 389 22,900 -2,340 Descending Los Angeles Center
01:36AM 34.2661 -116.9242 223° Southwest 336 387 20,700 -1,980 Descending Los Angeles Center
01:37AM 34.1989 -116.9997 223° Southwest 333 383 19,000 -840 Descending Los Angeles Center
01:38AM 34.1353 -117.0756 225° Southwest 323 372 19,000  Level Los Angeles Center
01:38AM 34.1000 -117.1333 234° Southwest 287 330 19,000  Level Southern California TRACON
01:39AM 34.0667 -117.2000 239° Southwest 280 322 19,000 -480 Level Southern California TRACON
01:40AM 34.0500 -117.2833 256° West 269 310 18,200 -1,320 Descending Southern California TRACON
01:41AM 34.0333 -117.3667 256° West 259 298 16,500 -1,860 Descending Southern California TRACON
01:42AM 34.0333 -117.4667 270° West 263 303 14,400 -1,800 Descending Southern California TRACON
01:43AM 34.0167 -117.5500 256° West 273 314 12,600 -1,740 Descending Southern California TRACON
01:44AM 34.0167 -117.6333 270° West 313 360 11,200 -1,560 Descending Southern California TRACON
01:45AM 34.0000 -117.7333 259° West 261 300 9,500 -1,440 Descending Southern California TRACON
01:46AM 34.0000 -117.8167 270° West 265 305 8,100 -1,320 Descending Southern California TRACON
01:47AM 33.9833 -117.9000 256° West 249 287 7,100 -1,140 Descending Southern California TRACON
01:48AM 33.9833 -117.9667 270° West 244 281 6,100 -960 Descending Southern California TRACON
01:49AM 33.9667 -118.0667 259° West 231 266 5,100 -960 Descending Southern California TRACON
01:50AM 33.9667 -118.1333 270° West 231 266 4,100 -1,200 Descending Southern California TRACON
01:51AM 33.9564 -118.1928 258° West 232 267 3,100 -1,080 Descending Los Angeles Center
01:52AM 33.9517 -118.2542 265° West 202 232 2,200 -840 Descending Los Angeles Center
01:53AM 33.9458 -118.3025 262° West 168 193 1,400 -780 Descending Los Angeles Center
01:54AM 33.9414 -118.3458 263° West 146 168 700 -660 Descending Los Angeles Center
01:55AM 33.9372 -118.3914 264° West 140 161 100 -600 Descending Los Angeles Center